Time;durP1;ratioP1;P1;durP2;ratioP2;P2;SDS_P1;SDS_P2;PMS_P1;PMS_P2;Temp;Humidity;BMP_temperature;BMP_pressure;BME280_temperature;BME280_humidity;BME280_pressure;Samples;Min_cycle;Max_cycle;Signal;HPM_P1;HPM_P2
2020/12/29 00:01:48;;;;;;;14.35;9.40;;;4.40;94.90;;;;;;4991201;28;20053;-71
2020/12/29 00:04:16;;;;;;;14.57;9.85;;;4.40;94.80;;;;;;4984347;28;20068;-71
2020/12/29 00:06:49;;;;;;;15.95;9.82;;;4.40;94.80;;;;;;4988391;28;20023;-71
2020/12/29 00:09:16;;;;;;;15.93;10.35;;;4.30;94.70;;;;;;4991651;28;20026;-71
2020/12/29 00:11:43;;;;;;;19.20;10.75;;;4.30;94.80;;;;;;4993273;28;20037;-71
2020/12/29 00:14:09;;;;;;;16.42;11.32;;;4.20;94.90;;;;;;4990530;28;20030;-71
2020/12/29 00:16:34;;;;;;;16.75;11.35;;;4.20;94.90;;;;;;4989642;28;20081;-71
2020/12/29 00:19:00;;;;;;;15.57;10.10;;;4.20;95.00;;;;;;4985999;28;20023;-71
2020/12/29 00:21:26;;;;;;;15.07;10.95;;;4.10;95.00;;;;;;4989783;28;20045;-70
2020/12/29 00:23:51;;;;;;;15.80;11.23;;;4.20;95.10;;;;;;4982321;28;20472;-71
2020/12/29 00:26:17;;;;;;;16.02;9.70;;;4.20;95.10;;;;;;4980081;28;20035;-71
2020/12/29 00:28:43;;;;;;;14.20;9.57;;;4.20;95.10;;;;;;4981393;28;20465;-71
2020/12/29 00:31:09;;;;;;;14.48;10.23;;;4.20;95.10;;;;;;4990977;28;20027;-71
2020/12/29 00:33:35;;;;;;;16.17;11.38;;;4.20;95.10;;;;;;4988974;28;20054;-71
2020/12/29 00:36:01;;;;;;;17.55;11.02;;;4.20;95.10;;;;;;4993137;28;20018;-71
2020/12/29 00:38:27;;;;;;;15.98;10.88;;;4.20;95.10;;;;;;4986517;28;20493;-71
2020/12/29 00:40:52;;;;;;;15.77;11.13;;;4.20;95.10;;;;;;4990847;28;20037;-71
2020/12/29 00:43:18;;;;;;;14.90;10.68;;;4.20;95.10;;;;;;4978176;28;20041;-71
2020/12/29 00:45:43;;;;;;;18.20;12.20;;;4.20;95.10;;;;;;4978412;28;20038;-70
2020/12/29 00:48:09;;;;;;;18.13;12.30;;;4.30;95.10;;;;;;4981877;28;20038;-71
2020/12/29 00:50:35;;;;;;;19.70;12.45;;;4.20;95.10;;;;;;4973857;28;20058;-71
2020/12/29 00:53:02;;;;;;;15.57;11.13;;;4.30;95.10;;;;;;4988120;28;20038;-71
2020/12/29 00:55:28;;;;;;;17.92;11.77;;;4.30;95.10;;;;;;4990181;28;20413;-71
2020/12/29 00:57:53;;;;;;;17.20;12.10;;;4.30;95.10;;;;;;4986125;28;20037;-71
2020/12/29 01:00:19;;;;;;;17.92;11.63;;;4.30;95.10;;;;;;4991303;28;20091;-71
2020/12/29 01:02:44;;;;;;;15.27;11.20;;;4.30;95.10;;;;;;4985509;28;20610;-71
2020/12/29 01:05:10;;;;;;;16.80;12.00;;;4.30;95.20;;;;;;4992139;28;20544;-71
2020/12/29 01:07:39;;;;;;;19.15;12.23;;;4.30;95.20;;;;;;4983970;28;20026;-71
2020/12/29 01:10:04;;;;;;;20.50;12.25;;;4.30;95.20;;;;;;4993196;28;20045;-71
2020/12/29 01:12:30;;;;;;;16.70;11.55;;;4.30;95.20;;;;;;4993357;28;20030;-71
2020/12/29 01:14:56;;;;;;;14.15;10.65;;;4.30;95.20;;;;;;4988899;28;20030;-71
2020/12/29 01:17:21;;;;;;;19.48;10.52;;;4.30;95.20;;;;;;4986398;28;20066;-71
2020/12/29 01:19:47;;;;;;;15.48;10.25;;;4.30;95.20;;;;;;4974376;28;20481;-70
2020/12/29 01:22:14;;;;;;;16.17;10.60;;;4.30;95.20;;;;;;4976271;28;20117;-70
2020/12/29 01:24:40;;;;;;;15.07;9.98;;;4.30;95.20;;;;;;4982803;28;20034;-69
2020/12/29 01:27:05;;;;;;;18.35;10.93;;;4.30;95.20;;;;;;4985137;28;20381;-69
2020/12/29 01:29:31;;;;;;;15.23;10.50;;;4.30;95.10;;;;;;4984833;28;20039;-71
2020/12/29 01:31:58;;;;;;;16.23;11.40;;;4.30;95.20;;;;;;4993380;28;20049;-71
2020/12/29 01:34:24;;;;;;;16.73;10.93;;;4.30;95.20;;;;;;4995832;28;20030;-72
2020/12/29 01:36:49;;;;;;;13.23;9.50;;;4.30;95.20;;;;;;4985444;28;20050;-71
2020/12/29 01:39:15;;;;;;;15.02;11.02;;;4.30;95.20;;;;;;4988415;28;20034;-71
2020/12/29 01:41:40;;;;;;;15.75;11.55;;;4.30;95.20;;;;;;4994933;28;20031;-71
2020/12/29 01:44:17;;;;;;;20.10;11.43;;;4.20;95.20;;;;;;4982141;28;20062;-71
2020/12/29 01:46:44;;;;;;;16.95;11.40;;;4.20;95.20;;;;;;4993695;28;20033;-71
2020/12/29 01:49:10;;;;;;;17.75;10.95;;;4.20;95.20;;;;;;4988086;28;20042;-71
2020/12/29 01:51:37;;;;;;;15.80;11.65;;;4.10;95.20;;;;;;4981731;28;20464;-71
2020/12/29 01:54:04;;;;;;;17.73;12.13;;;4.10;95.30;;;;;;4994190;28;20034;-71
2020/12/29 01:56:35;;;;;;;16.42;12.48;;;4.20;95.30;;;;;;4994099;28;20037;-71
2020/12/29 01:59:08;;;;;;;16.52;11.63;;;4.20;95.30;;;;;;4977731;28;20030;-71
2020/12/29 02:01:34;;;;;;;19.65;12.90;;;4.10;95.30;;;;;;5001701;28;20033;-71
2020/12/29 02:03:59;;;;;;;18.35;13.25;;;4.20;95.30;;;;;;4980774;28;20027;-71
2020/12/29 02:06:25;;;;;;;18.77;13.07;;;4.20;95.40;;;;;;4992685;28;20466;-71
2020/12/29 02:08:50;;;;;;;17.30;12.63;;;4.20;95.30;;;;;;4993726;28;20027;-71
2020/12/29 02:11:16;;;;;;;17.35;11.48;;;4.20;95.30;;;;;;4989879;28;20093;-71
2020/12/29 02:13:43;;;;;;;18.30;13.30;;;4.20;95.30;;;;;;4987381;28;20058;-70
2020/12/29 02:16:08;;;;;;;18.30;13.35;;;4.20;95.30;;;;;;4993540;28;20035;-70
2020/12/29 02:18:34;;;;;;;16.10;10.95;;;4.20;95.30;;;;;;4993427;28;20036;-70
2020/12/29 02:20:59;;;;;;;16.80;12.13;;;4.30;95.30;;;;;;4991889;28;20038;-70
2020/12/29 02:23:25;;;;;;;14.20;11.05;;;4.20;95.20;;;;;;4984141;28;20030;-70
2020/12/29 02:25:50;;;;;;;14.45;10.82;;;4.20;95.50;;;;;;4988671;28;20022;-70
2020/12/29 02:28:16;;;;;;;15.95;11.73;;;4.20;95.20;;;;;;4994093;28;20019;-70
2020/12/29 02:30:41;;;;;;;16.25;11.82;;;4.20;95.10;;;;;;4989193;28;20031;-70
2020/12/29 02:33:07;;;;;;;20.88;12.32;;;4.20;95.10;;;;;;4988194;28;20031;-70
2020/12/29 02:35:33;;;;;;;16.17;11.93;;;4.20;95.10;;;;;;4989868;28;20041;-70
2020/12/29 02:37:58;;;;;;;17.38;13.07;;;4.20;95.10;;;;;;4981794;28;20101;-70
2020/12/29 02:40:24;;;;;;;17.55;13.32;;;4.10;95.10;;;;;;4993556;28;20027;-70
2020/12/29 02:42:49;;;;;;;20.55;14.43;;;4.20;95.10;;;;;;4988015;28;20034;-71
2020/12/29 02:45:15;;;;;;;17.58;12.93;;;4.20;95.10;;;;;;4989024;28;20037;-70
2020/12/29 02:47:41;;;;;;;19.75;14.25;;;4.20;95.10;;;;;;4986377;28;20082;-70
2020/12/29 02:50:07;;;;;;;19.02;13.40;;;4.10;95.00;;;;;;4987336;28;20038;-70
2020/12/29 02:52:33;;;;;;;20.15;13.45;;;4.10;95.10;;;;;;4990930;28;20040;-70
2020/12/29 02:54:59;;;;;;;15.85;11.43;;;4.10;95.10;;;;;;4987457;28;20026;-70
2020/12/29 02:57:24;;;;;;;18.02;12.70;;;4.10;95.20;;;;;;4989300;28;20381;-70
2020/12/29 02:59:49;;;;;;;16.60;11.82;;;4.00;95.10;;;;;;4975453;28;20027;-70
2020/12/29 03:02:16;;;;;;;16.33;11.93;;;4.00;95.20;;;;;;4989873;28;20034;-70
2020/12/29 03:04:41;;;;;;;15.57;11.95;;;4.00;95.20;;;;;;4989929;28;20350;-70
2020/12/29 03:07:08;;;;;;;17.98;11.95;;;4.00;95.20;;;;;;4980679;28;20042;-70
2020/12/29 03:09:33;;;;;;;14.75;10.50;;;4.10;95.20;;;;;;4977405;28;20400;-70
2020/12/29 03:11:59;;;;;;;16.77;11.25;;;4.00;95.20;;;;;;4988055;28;20109;-70
2020/12/29 03:14:25;;;;;;;16.40;11.13;;;4.10;95.20;;;;;;4995617;28;20605;-70
2020/12/29 03:16:50;;;;;;;17.58;11.43;;;4.10;95.10;;;;;;4994422;28;20022;-71
2020/12/29 03:19:16;;;;;;;14.80;10.63;;;4.10;95.10;;;;;;4993797;28;20046;-70
2020/12/29 03:21:41;;;;;;;13.82;10.75;;;4.10;95.10;;;;;;4990640;28;20038;-71
2020/12/29 03:24:07;;;;;;;15.27;11.30;;;4.10;95.10;;;;;;4993875;28;20057;-71
2020/12/29 03:26:32;;;;;;;15.07;11.25;;;4.10;95.10;;;;;;4991385;28;20026;-71
2020/12/29 03:28:59;;;;;;;14.95;11.05;;;4.10;95.10;;;;;;4994231;28;20022;-71
2020/12/29 03:31:25;;;;;;;15.40;10.20;;;4.10;95.10;;;;;;4980208;28;20591;-71
2020/12/29 03:33:51;;;;;;;18.00;11.63;;;4.10;95.10;;;;;;4989027;28;20105;-71
2020/12/29 03:36:16;;;;;;;16.13;11.40;;;4.10;95.10;;;;;;4986782;28;20027;-71
2020/12/29 03:38:42;;;;;;;15.02;11.48;;;4.10;95.10;;;;;;4994860;28;20034;-71
2020/12/29 03:41:07;;;;;;;15.25;11.32;;;4.10;95.10;;;;;;4988700;28;20077;-71
2020/12/29 03:43:33;;;;;;;14.80;10.90;;;4.00;95.10;;;;;;4993856;28;20113;-71
2020/12/29 03:45:59;;;;;;;18.55;11.05;;;4.10;95.10;;;;;;4983009;28;20097;-71
2020/12/29 03:48:26;;;;;;;16.58;10.45;;;4.10;95.30;;;;;;4978554;28;20054;-73
2020/12/29 03:50:52;;;;;;;14.52;11.20;;;4.10;95.10;;;;;;4982947;28;20069;-71
2020/12/29 03:53:17;;;;;;;18.63;12.38;;;4.10;95.20;;;;;;4994242;28;20385;-71
2020/12/29 03:55:43;;;;;;;16.98;11.77;;;4.10;95.10;;;;;;4991217;28;20035;-71
2020/12/29 03:58:09;;;;;;;15.73;11.55;;;4.10;95.10;;;;;;4988433;28;20102;-71
2020/12/29 04:00:36;;;;;;;16.95;11.27;;;4.10;95.10;;;;;;4984786;28;22597;-71
2020/12/29 04:03:02;;;;;;;15.48;10.30;;;4.10;95.10;;;;;;4974661;28;20037;-71
2020/12/29 04:05:28;;;;;;;17.13;11.73;;;4.10;95.10;;;;;;4983455;28;20033;-71
2020/12/29 04:07:54;;;;;;;15.32;11.15;;;4.10;95.10;;;;;;4993064;28;20105;-71
2020/12/29 04:10:19;;;;;;;17.10;11.27;;;4.10;95.10;;;;;;4983158;28;20121;-71
2020/12/29 04:12:45;;;;;;;17.90;12.48;;;4.10;95.10;;;;;;4973500;28;20033;-71
2020/12/29 04:15:11;;;;;;;16.63;12.02;;;4.10;95.10;;;;;;4974849;28;20035;-71
2020/12/29 04:17:38;;;;;;;18.33;11.80;;;4.10;95.10;;;;;;4977989;28;20028;-71
2020/12/29 04:20:05;;;;;;;21.30;11.95;;;4.10;95.10;;;;;;4984781;28;20033;-71
2020/12/29 04:22:32;;;;;;;19.15;11.95;;;4.10;95.10;;;;;;4986308;28;20053;-71
2020/12/29 04:24:58;;;;;;;14.38;10.60;;;4.20;95.10;;;;;;4987200;28;20050;-71
2020/12/29 04:27:24;;;;;;;17.08;11.60;;;4.20;95.10;;;;;;4992873;28;20037;-71
2020/12/29 04:29:49;;;;;;;17.92;10.60;;;4.20;95.10;;;;;;4974935;28;20038;-71
2020/12/29 04:32:16;;;;;;;16.95;11.32;;;4.20;95.10;;;;;;4991418;28;20022;-71
2020/12/29 04:34:42;;;;;;;19.38;11.68;;;4.20;95.10;;;;;;4993841;28;20477;-70
2020/12/29 04:37:07;;;;;;;20.48;12.75;;;4.20;95.10;;;;;;4993892;28;20073;-71
2020/12/29 04:39:33;;;;;;;22.00;12.07;;;4.20;95.00;;;;;;4994062;28;20030;-71
2020/12/29 04:42:07;;;;;;;18.65;11.70;;;4.20;95.10;;;;;;4993264;28;20030;-71
2020/12/29 04:44:33;;;;;;;18.77;13.00;;;4.20;95.00;;;;;;4991639;28;20054;-71
2020/12/29 04:46:59;;;;;;;19.50;12.45;;;4.20;95.10;;;;;;4993626;28;20034;-71
2020/12/29 04:49:25;;;;;;;23.45;12.57;;;4.20;95.10;;;;;;4993535;28;20137;-71
2020/12/29 04:51:51;;;;;;;22.23;13.77;;;4.30;95.10;;;;;;4986292;28;20109;-71
2020/12/29 04:54:18;;;;;;;26.00;14.27;;;4.30;95.10;;;;;;4987142;28;20026;-71
2020/12/29 04:56:53;;;;;;;24.20;14.50;;;4.30;95.10;;;;;;4993230;28;20050;-71
2020/12/29 04:59:19;;;;;;;23.20;13.48;;;4.30;95.10;;;;;;4982075;28;20066;-70
2020/12/29 05:01:44;;;;;;;27.52;14.73;;;4.30;95.10;;;;;;4989186;28;20092;-71
2020/12/29 05:04:10;;;;;;;24.05;13.60;;;4.30;95.10;;;;;;4986262;28;20035;-71
2020/12/29 05:06:36;;;;;;;21.95;14.00;;;4.30;95.10;;;;;;4977069;28;20031;-71
2020/12/29 05:09:02;;;;;;;20.65;15.13;;;4.40;95.10;;;;;;4978176;28;20084;-71
2020/12/29 05:11:33;;;;;;;21.08;13.98;;;4.30;95.10;;;;;;4986232;28;20465;-71
2020/12/29 05:13:59;;;;;;;22.23;13.77;;;4.30;95.10;;;;;;4977927;28;20023;-71
2020/12/29 05:16:25;;;;;;;23.45;15.55;;;4.30;95.10;;;;;;4978158;28;20023;-71
2020/12/29 05:18:51;;;;;;;23.90;15.30;;;4.40;95.10;;;;;;4985498;28;20023;-70
2020/12/29 05:21:18;;;;;;;25.50;15.65;;;4.40;95.10;;;;;;4996495;28;20030;-70
2020/12/29 05:23:44;;;;;;;22.83;15.02;;;4.40;95.10;;;;;;4988076;28;20117;-71
2020/12/29 05:26:10;;;;;;;22.60;15.68;;;4.40;95.10;;;;;;4993322;28;20544;-71
2020/12/29 05:28:37;;;;;;;24.05;16.00;;;4.40;95.10;;;;;;4987697;28;20022;-71
2020/12/29 05:31:05;;;;;;;23.75;15.02;;;4.40;95.00;;;;;;4977684;28;20030;-71
2020/12/29 05:33:31;;;;;;;23.30;13.98;;;4.40;95.00;;;;;;4992696;28;20026;-71
2020/12/29 05:35:58;;;;;;;23.20;14.25;;;4.40;95.00;;;;;;4996398;28;20077;-71
2020/12/29 05:38:24;;;;;;;24.02;14.93;;;4.40;95.00;;;;;;4997510;28;20029;-71
2020/12/29 05:40:50;;;;;;;24.98;15.38;;;4.30;95.00;;;;;;4996587;28;20396;-71
2020/12/29 05:43:30;;;;;;;22.50;15.35;;;4.30;95.00;;;;;;4981401;28;20113;-71
2020/12/29 05:45:58;;;;;;;24.02;15.38;;;4.30;95.00;;;;;;4980902;28;20027;-71
2020/12/29 05:48:24;;;;;;;25.48;16.02;;;4.30;95.00;;;;;;4994835;28;20089;-71
2020/12/29 05:50:49;;;;;;;30.13;17.92;;;4.20;95.00;;;;;;4996428;28;20060;-71
2020/12/29 05:53:19;;;;;;;25.50;17.58;;;4.20;95.00;;;;;;4985650;28;20081;-71
2020/12/29 05:55:46;;;;;;;26.35;17.60;;;4.20;95.00;;;;;;4992458;28;20023;-70
2020/12/29 05:58:11;;;;;;;25.52;17.33;;;4.20;95.10;;;;;;4987537;28;20370;-70
2020/12/29 06:00:39;;;;;;;28.70;19.85;;;4.20;95.10;;;;;;4994944;28;20022;-70
2020/12/29 06:03:06;;;;;;;27.13;17.35;;;4.20;95.10;;;;;;4996486;28;20034;-70
2020/12/29 06:05:33;;;;;;;34.10;19.42;;;4.20;95.10;;;;;;4994666;28;20101;-70
2020/12/29 06:08:01;;;;;;;31.27;20.52;;;4.20;95.20;;;;;;4995840;28;20465;-70
2020/12/29 06:10:28;;;;;;;30.75;18.88;;;4.20;95.20;;;;;;4985238;28;20031;-70
2020/12/29 06:12:54;;;;;;;33.03;21.25;;;4.20;95.20;;;;;;4986271;28;20026;-72
2020/12/29 06:15:25;;;;;;;33.90;20.33;;;4.20;95.30;;;;;;4987162;28;20041;-72
2020/12/29 06:17:56;;;;;;;30.55;19.52;;;4.20;95.20;;;;;;4985786;28;20053;-72
2020/12/29 06:20:22;;;;;;;32.20;20.67;;;4.20;95.20;;;;;;4988544;28;20401;-72
2020/12/29 06:22:50;;;;;;;32.75;20.60;;;4.20;95.30;;;;;;4976879;28;20027;-71
2020/12/29 06:25:17;;;;;;;31.42;20.45;;;4.20;95.30;;;;;;4983366;28;20119;-72
2020/12/29 06:27:52;;;;;;;37.25;22.85;;;4.20;95.30;;;;;;4994401;28;20093;-72
2020/12/29 06:30:19;;;;;;;36.63;21.40;;;4.20;95.30;;;;;;4989870;28;20026;-72
2020/12/29 06:32:48;;;;;;;34.08;21.60;;;4.20;95.30;;;;;;4991578;28;20420;-72
2020/12/29 06:35:14;;;;;;;32.30;20.65;;;4.20;95.30;;;;;;4989235;28;20027;-72
2020/12/29 06:37:50;;;;;;;33.00;20.45;;;4.20;95.30;;;;;;4991183;28;20110;-71
2020/12/29 06:40:19;;;;;;;36.05;22.02;;;4.30;95.40;;;;;;4989408;28;20030;-72
2020/12/29 06:42:45;;;;;;;40.83;23.67;;;4.30;95.40;;;;;;4980349;28;20034;-71
2020/12/29 06:45:12;;;;;;;38.97;24.15;;;4.30;95.40;;;;;;4980392;28;20072;-72
2020/12/29 06:47:40;;;;;;;34.35;22.58;;;4.20;95.30;;;;;;4985627;28;20026;-72
2020/12/29 06:50:26;;;;;;;41.67;25.70;;;4.30;95.40;;;;;;4991718;28;20050;-72
2020/12/29 06:52:56;;;;;;;44.85;25.58;;;4.20;95.30;;;;;;4982601;28;21728;-72
2020/12/29 06:55:22;;;;;;;39.65;23.02;;;4.30;95.40;;;;;;4983432;28;20377;-72
2020/12/29 06:57:52;;;;;;;42.22;24.50;;;4.30;95.40;;;;;;4989540;28;20018;-71
2020/12/29 07:00:19;;;;;;;41.00;25.38;;;4.30;95.40;;;;;;4994528;28;20548;-72
2020/12/29 07:02:47;;;;;;;40.08;24.83;;;4.30;95.40;;;;;;4982364;28;20029;-72
2020/12/29 07:05:23;;;;;;;39.70;24.65;;;4.30;95.50;;;;;;4988939;28;20432;-72
2020/12/29 07:08:01;;;;;;;41.08;24.42;;;4.30;95.40;;;;;;4986583;28;20077;-72
2020/12/29 07:10:47;;;;;;;42.20;26.85;;;4.30;95.50;;;;;;4992303;28;20053;-73
2020/12/29 07:13:15;;;;;;;44.35;28.27;;;4.30;95.40;;;;;;4976005;28;20026;-72
2020/12/29 07:15:54;;;;;;;42.35;25.08;;;4.30;95.50;;;;;;4983846;28;20015;-72
2020/12/29 07:18:27;;;;;;;44.45;24.33;;;4.30;95.40;;;;;;4985750;28;20370;-72
2020/12/29 07:20:57;;;;;;;40.67;22.52;;;4.30;95.40;;;;;;4989062;28;20380;-72
2020/12/29 07:23:28;;;;;;;36.63;20.27;;;4.20;95.30;;;;;;4983649;28;20034;-72
2020/12/29 07:25:57;;;;;;;43.17;22.30;;;4.20;95.30;;;;;;4986748;28;20049;-72
2020/12/29 07:28:25;;;;;;;38.40;18.92;;;4.10;95.30;;;;;;4989630;28;20073;-72
2020/12/29 07:30:51;;;;;;;45.35;22.50;;;4.10;95.40;;;;;;4992606;28;20023;-72
2020/12/29 07:33:25;;;;;;;39.00;19.08;;;4.10;95.40;;;;;;4982701;28;20023;-72
2020/12/29 07:35:51;;;;;;;49.67;23.90;;;4.10;95.50;;;;;;4976567;28;20019;-72
2020/12/29 07:38:24;;;;;;;47.17;22.23;;;4.10;95.50;;;;;;4987261;28;20026;-72
2020/12/29 07:40:50;;;;;;;52.92;23.70;;;4.10;95.40;;;;;;4989752;28;20019;-72
2020/12/29 07:43:16;;;;;;;52.58;23.90;;;4.10;95.40;;;;;;4981247;28;20519;-71
2020/12/29 07:45:42;;;;;;;53.25;24.83;;;4.10;95.40;;;;;;4992505;28;20124;-71
2020/12/29 07:48:08;;;;;;;54.95;24.98;;;4.10;95.40;;;;;;4990137;28;20461;-71
2020/12/29 07:50:35;;;;;;;55.97;25.85;;;4.10;95.40;;;;;;4977933;28;20030;-72
2020/12/29 07:53:04;;;;;;;50.13;24.17;;;4.10;95.40;;;;;;4985495;28;20107;-72
2020/12/29 07:55:29;;;;;;;53.22;25.77;;;4.10;95.40;;;;;;4996503;28;20081;-72
2020/12/29 07:57:56;;;;;;;48.05;23.70;;;4.00;95.30;;;;;;4997160;28;20429;-71
2020/12/29 08:00:22;;;;;;;52.25;24.75;;;4.00;95.30;;;;;;4980911;28;20089;-72
2020/12/29 08:02:52;;;;;;;53.67;25.15;;;3.90;95.30;;;;;;4975234;28;20031;-71
2020/12/29 08:05:25;;;;;;;44.05;21.23;;;3.90;95.40;;;;;;4992866;28;20022;-72
2020/12/29 08:08:12;;;;;;;38.53;18.65;;;3.90;95.40;;;;;;4975194;28;20069;-72
2020/12/29 08:10:40;;;;;;;40.80;20.15;;;3.80;95.40;;;;;;4986286;28;20381;-71
2020/12/29 08:13:07;;;;;;;33.35;16.45;;;3.80;95.40;;;;;;5003746;28;20117;-70
2020/12/29 08:15:35;;;;;;;37.40;18.60;;;3.80;95.40;;;;;;4990735;28;20029;-72
2020/12/29 08:18:10;;;;;;;35.63;17.60;;;3.90;95.40;;;;;;4999439;28;20026;-72
2020/12/29 08:20:46;;;;;;;38.03;19.33;;;3.80;95.40;;;;;;4989867;28;20872;-72
2020/12/29 08:23:13;;;;;;;35.25;17.58;;;3.80;95.40;;;;;;4990509;28;20045;-73
2020/12/29 08:25:39;;;;;;;35.42;18.23;;;3.80;95.40;;;;;;4991032;28;20373;-73
2020/12/29 08:28:05;;;;;;;32.03;17.50;;;3.90;95.40;;;;;;4990676;28;20507;-72
2020/12/29 08:30:35;;;;;;;36.80;18.42;;;3.80;95.20;;;;;;4991674;28;20117;-72
2020/12/29 08:33:05;;;;;;;33.92;18.58;;;3.80;95.20;;;;;;4988598;28;20485;-72
2020/12/29 08:35:46;;;;;;;35.70;18.25;;;3.80;95.20;;;;;;4982005;28;20046;-73
2020/12/29 08:38:32;;;;;;;34.70;18.55;;;3.90;95.30;;;;;;4984935;28;20033;-73
2020/12/29 08:41:10;;;;;;;33.42;17.50;;;3.90;95.30;;;;;;4976642;28;20050;-72
2020/12/29 08:43:47;;;;;;;36.90;19.65;;;3.90;95.30;;;;;;4980469;28;20069;-74
2020/12/29 08:46:15;;;;;;;34.60;18.80;;;4.00;95.30;;;;;;4988104;28;20053;-72
2020/12/29 08:48:59;;;;;;;33.17;17.70;;;4.00;95.20;;;;;;4991467;28;20042;-74
2020/12/29 08:51:29;;;;;;;36.80;19.08;;;4.10;95.10;;;;;;4988203;28;20046;-73
2020/12/29 08:54:18;;;;;;;33.50;18.15;;;4.10;95.20;;;;;;4989631;28;20592;-73
2020/12/29 08:56:45;;;;;;;31.98;16.60;;;4.20;95.20;;;;;;4984386;28;20031;-73
2020/12/29 08:59:16;;;;;;;29.08;16.20;;;4.20;95.10;;;;;;4986985;28;20432;-74
2020/12/29 09:01:44;;;;;;;30.05;16.58;;;4.20;95.10;;;;;;4985340;28;20037;-74
2020/12/29 09:04:34;;;;;;;29.98;16.70;;;4.30;95.10;;;;;;4990644;28;20026;-73
2020/12/29 09:07:01;;;;;;;26.55;13.88;;;4.40;95.10;;;;;;4984351;28;20039;-72
2020/12/29 09:09:28;;;;;;;26.77;14.75;;;4.50;95.10;;;;;;4983138;28;20029;-74
2020/12/29 09:12:14;;;;;;;27.08;14.88;;;4.70;95.20;;;;;;4984191;28;20030;-74
2020/12/29 09:14:53;;;;;;;30.55;16.33;;;4.80;95.10;;;;;;4987101;28;20476;-74
2020/12/29 09:17:20;;;;;;;30.40;16.08;;;4.90;95.00;;;;;;4987496;28;20026;-74
2020/12/29 09:20:14;;;;;;;34.10;18.77;;;4.90;94.80;;;;;;4991082;28;20039;-74
2020/12/29 09:22:59;;;;;;;27.92;15.95;;;5.00;94.80;;;;;;4995032;28;20511;-73
2020/12/29 09:25:27;;;;;;;28.35;15.60;;;5.00;94.60;;;;;;4985366;28;20038;-73
2020/12/29 09:28:12;;;;;;;30.13;16.85;;;5.10;94.60;;;;;;4992272;28;20436;-73
2020/12/29 09:30:39;;;;;;;27.25;15.38;;;5.10;94.60;;;;;;4991215;28;20026;-73
2020/12/29 09:33:06;;;;;;;26.50;14.45;;;5.10;94.60;;;;;;4987334;28;20035;-73
2020/12/29 09:35:32;;;;;;;26.00;14.68;;;5.20;94.60;;;;;;4980073;28;20019;-73
2020/12/29 09:38:00;;;;;;;24.80;14.55;;;5.20;94.40;;;;;;4987169;28;20026;-73
2020/12/29 09:40:26;;;;;;;30.10;15.95;;;5.10;94.30;;;;;;4987912;28;20034;-73
2020/12/29 09:42:52;;;;;;;28.35;15.25;;;5.10;94.30;;;;;;4989179;28;20054;-72
2020/12/29 09:45:20;;;;;;;24.98;14.20;;;5.10;94.30;;;;;;4990622;28;20085;-73
2020/12/29 09:47:46;;;;;;;25.90;15.23;;;5.10;94.60;;;;;;4984766;28;20053;-73
2020/12/29 09:50:11;;;;;;;26.30;15.15;;;5.10;94.20;;;;;;4977741;28;20046;-73
2020/12/29 09:52:37;;;;;;;25.85;15.13;;;5.10;94.30;;;;;;4987414;28;20034;-72
2020/12/29 09:55:06;;;;;;;26.95;15.57;;;5.10;94.20;;;;;;4992157;28;20076;-72
2020/12/29 09:57:32;;;;;;;25.60;15.40;;;5.20;94.40;;;;;;5001972;28;20046;-72
2020/12/29 09:59:58;;;;;;;29.25;16.92;;;5.20;94.10;;;;;;4992725;28;20401;-72
2020/12/29 10:02:24;;;;;;;28.95;15.23;;;5.30;94.20;;;;;;4982168;28;20037;-71
2020/12/29 10:04:49;;;;;;;28.55;16.75;;;5.40;94.00;;;;;;4994682;28;20030;-72
2020/12/29 10:07:15;;;;;;;30.48;17.75;;;5.40;93.90;;;;;;4984179;28;20031;-72
2020/12/29 10:09:40;;;;;;;32.97;18.58;;;5.50;94.00;;;;;;4983627;28;20038;-71
2020/12/29 10:12:06;;;;;;;36.92;19.90;;;5.60;93.60;;;;;;4987695;28;20023;-71
2020/12/29 10:14:32;;;;;;;39.60;21.30;;;5.60;93.60;;;;;;4988663;28;20022;-72
2020/12/29 10:16:57;;;;;;;40.45;21.23;;;5.60;93.50;;;;;;4987155;28;20019;-72
2020/12/29 10:19:23;;;;;;;47.65;24.40;;;5.60;93.50;;;;;;4988760;28;20061;-72
2020/12/29 10:21:55;;;;;;;44.88;22.48;;;5.60;93.30;;;;;;4986005;28;20030;-72
2020/12/29 10:24:22;;;;;;;49.10;26.52;;;5.60;93.20;;;;;;4986416;28;20030;-72
2020/12/29 10:26:52;;;;;;;50.05;28.40;;;5.50;93.30;;;;;;4986100;28;20034;-72
2020/12/29 10:29:19;;;;;;;48.28;27.10;;;5.50;93.40;;;;;;4988469;28;20030;-71
2020/12/29 10:31:44;;;;;;;49.28;28.52;;;5.50;93.50;;;;;;4986924;28;20037;-72
2020/12/29 10:34:14;;;;;;;47.45;27.75;;;5.40;93.40;;;;;;4991679;28;20022;-71
2020/12/29 10:36:41;;;;;;;51.30;27.98;;;5.30;93.60;;;;;;5002169;28;20029;-72
2020/12/29 10:39:07;;;;;;;49.85;28.95;;;5.40;94.00;;;;;;4991433;28;20034;-71
2020/12/29 10:41:34;;;;;;;53.70;28.88;;;5.40;93.70;;;;;;4993098;28;20031;-69
2020/12/29 10:44:00;;;;;;;56.55;27.60;;;5.50;93.80;;;;;;4993424;28;20030;-70
2020/12/29 10:46:26;;;;;;;51.25;27.05;;;5.50;93.50;;;;;;4989627;28;20033;-70
2020/12/29 10:48:52;;;;;;;51.78;26.88;;;5.50;93.50;;;;;;4993420;28;20050;-71
2020/12/29 10:51:18;;;;;;;47.60;26.65;;;5.50;93.50;;;;;;4986518;28;20087;-70
2020/12/29 10:53:45;;;;;;;53.90;28.17;;;5.50;93.70;;;;;;4998460;28;20034;-70
2020/12/29 10:56:10;;;;;;;54.22;29.25;;;5.60;93.60;;;;;;4996360;28;20043;-70
2020/12/29 10:58:41;;;;;;;53.47;29.73;;;5.80;93.50;;;;;;4981293;28;20029;-70
2020/12/29 11:01:10;;;;;;;48.42;29.08;;;5.90;93.30;;;;;;4987320;28;20037;-70
2020/12/29 11:03:36;;;;;;;49.72;28.17;;;6.00;93.20;;;;;;4987360;28;20081;-71
2020/12/29 11:06:02;;;;;;;49.28;28.45;;;6.10;92.60;;;;;;4991144;28;20113;-71
2020/12/29 11:08:28;;;;;;;50.50;28.42;;;6.00;92.40;;;;;;4985270;28;20137;-71
2020/12/29 11:10:55;;;;;;;46.53;26.67;;;6.00;92.80;;;;;;4991197;28;20427;-71
2020/12/29 11:13:21;;;;;;;53.42;29.83;;;6.10;92.90;;;;;;4991032;28;20492;-71
2020/12/29 11:15:51;;;;;;;49.20;27.77;;;6.30;93.00;;;;;;4990228;28;20069;-71
2020/12/29 11:18:17;;;;;;;41.63;25.85;;;6.40;92.70;;;;;;4982392;28;20030;-71
2020/12/29 11:20:43;;;;;;;44.00;25.52;;;6.50;92.60;;;;;;4996893;28;20030;-71
2020/12/29 11:23:08;;;;;;;40.35;24.40;;;6.50;92.40;;;;;;4989563;28;20030;-71
2020/12/29 11:25:34;;;;;;;45.85;26.02;;;6.50;92.10;;;;;;5000003;28;20034;-71
2020/12/29 11:27:59;;;;;;;46.03;26.98;;;6.50;92.20;;;;;;4979690;28;20034;-71
2020/12/29 11:30:25;;;;;;;46.22;26.95;;;6.50;92.00;;;;;;4975915;28;20489;-71
2020/12/29 11:32:50;;;;;;;46.70;27.38;;;6.30;91.90;;;;;;4989864;28;20022;-71
2020/12/29 11:35:16;;;;;;;47.65;29.50;;;6.30;91.90;;;;;;4984609;28;20026;-71
2020/12/29 11:37:41;;;;;;;39.92;25.67;;;6.10;91.70;;;;;;4982978;28;20034;-71
2020/12/29 11:40:08;;;;;;;44.40;27.05;;;6.00;91.70;;;;;;4974461;28;20393;-71
2020/12/29 11:42:34;;;;;;;41.15;27.85;;;6.00;91.90;;;;;;4988193;28;20117;-71
2020/12/29 11:45:00;;;;;;;45.83;27.50;;;5.90;92.10;;;;;;4993752;28;20596;-71
2020/12/29 11:47:25;;;;;;;42.47;26.80;;;5.90;92.40;;;;;;4987383;28;20035;-71
2020/12/29 11:49:51;;;;;;;39.95;26.48;;;5.90;92.30;;;;;;4985448;28;20057;-72
2020/12/29 11:52:17;;;;;;;42.42;25.15;;;5.80;92.20;;;;;;4993922;28;20034;-70
2020/12/29 11:54:43;;;;;;;41.70;25.85;;;5.80;92.30;;;;;;4985330;28;20406;-71
2020/12/29 11:57:08;;;;;;;39.67;25.67;;;5.80;92.40;;;;;;4985916;28;20060;-71
2020/12/29 11:59:34;;;;;;;40.05;25.33;;;5.70;92.50;;;;;;4987899;28;20125;-72
2020/12/29 12:01:59;;;;;;;37.28;23.50;;;5.70;92.50;;;;;;4992988;28;20076;-69
2020/12/29 12:04:25;;;;;;;39.08;23.67;;;5.60;92.50;;;;;;4990734;28;20058;-71
2020/12/29 12:06:50;;;;;;;39.95;22.50;;;5.60;92.60;;;;;;4981657;28;20034;-70
2020/12/29 12:09:16;;;;;;;32.47;21.60;;;5.60;92.70;;;;;;4990526;28;20085;-72
2020/12/29 12:11:41;;;;;;;34.65;22.48;;;5.60;92.80;;;;;;4979597;28;20389;-69
2020/12/29 12:14:07;;;;;;;31.55;21.33;;;5.60;92.80;;;;;;4985954;28;20053;-70
2020/12/29 12:16:40;;;;;;;32.72;21.30;;;5.60;92.80;;;;;;4991551;28;20097;-70
2020/12/29 12:19:06;;;;;;;29.65;19.08;;;5.60;92.90;;;;;;4991012;28;20040;-70
2020/12/29 12:21:33;;;;;;;28.58;19.23;;;5.60;92.80;;;;;;4991151;28;20027;-72
2020/12/29 12:24:00;;;;;;;34.75;20.15;;;5.60;92.90;;;;;;4988385;28;20022;-72
2020/12/29 12:26:27;;;;;;;29.02;19.67;;;5.60;93.00;;;;;;4989309;28;20045;-72
2020/12/29 12:28:53;;;;;;;29.98;19.13;;;5.60;93.30;;;;;;4988289;28;20116;-72
2020/12/29 12:31:18;;;;;;;29.02;18.80;;;5.60;93.00;;;;;;4989853;28;20113;-72
2020/12/29 12:33:44;;;;;;;29.95;18.17;;;5.70;93.00;;;;;;4988243;28;20038;-72
2020/12/29 12:36:10;;;;;;;30.30;18.55;;;5.70;93.00;;;;;;4991828;28;20037;-72
2020/12/29 12:38:36;;;;;;;29.38;18.73;;;5.70;93.00;;;;;;4991794;28;20018;-70
2020/12/29 12:41:05;;;;;;;29.58;19.17;;;5.70;93.00;;;;;;4991390;28;20023;-69